sensor_id;sensor_type;location;lat;lon;timestamp;pressure;altitude;pressure_sealevel;temperature;humidity
21869;BME280;11099;41.564;23.296;2023-12-20T01:10:36;97993.69;;;5.21;100.00
21869;BME280;11099;41.564;23.296;2023-12-20T01:13:11;97975.75;;;5.23;100.00
21869;BME280;11099;41.564;23.296;2023-12-20T01:28:59;97953.16;;;4.80;100.00
21869;BME280;11099;41.564;23.296;2023-12-20T01:31:30;97973.53;;;4.42;100.00
21869;BME280;11099;41.564;23.296;2023-12-20T05:08:05;97806.06;;;4.19;100.00
21869;BME280;11099;41.564;23.296;2023-12-20T05:10:31;97810.34;;;4.35;100.00
21869;BME280;11099;41.564;23.296;2023-12-20T05:12:57;97870.38;;;4.28;100.00
21869;BME280;11099;41.564;23.296;2023-12-20T05:15:23;97808.94;;;3.70;100.00
21869;BME280;11099;41.564;23.296;2023-12-20T05:17:52;97831.44;;;3.51;100.00
21869;BME280;11099;41.564;23.296;2023-12-20T05:20:26;97856.66;;;4.21;100.00
21869;BME280;11099;41.564;23.296;2023-12-20T05:22:55;97856.44;;;3.85;100.00
21869;BME280;11099;41.564;23.296;2023-12-20T05:25:21;97840.22;;;4.04;100.00
21869;BME280;11099;41.564;23.296;2023-12-20T05:27:48;97806.03;;;3.34;100.00
21869;BME280;11099;41.564;23.296;2023-12-20T05:30:14;97781.66;;;3.86;100.00
21869;BME280;11099;41.564;23.296;2023-12-20T05:32:43;97850.31;;;4.22;100.00
21869;BME280;11099;41.564;23.296;2023-12-20T05:35:12;97845.13;;;4.37;100.00
21869;BME280;11099;41.564;23.296;2023-12-20T05:37:44;97788.38;;;4.14;100.00
21869;BME280;11099;41.564;23.296;2023-12-20T05:40:32;97842.00;;;4.45;100.00
21869;BME280;11099;41.564;23.296;2023-12-20T05:42:59;97832.72;;;3.80;100.00
21869;BME280;11099;41.564;23.296;2023-12-20T05:45:31;97768.38;;;3.66;100.00
21869;BME280;11099;41.564;23.296;2023-12-20T05:47:57;97825.16;;;3.94;100.00
21869;BME280;11099;41.564;23.296;2023-12-20T05:50:36;97793.09;;;3.60;100.00
21869;BME280;11099;41.564;23.296;2023-12-20T05:53:03;97830.44;;;3.99;100.00
21869;BME280;11099;41.564;23.296;2023-12-20T05:58:20;97786.97;;;3.96;100.00
21869;BME280;11099;41.564;23.296;2023-12-20T06:00:50;97775.88;;;3.94;100.00
21869;BME280;11099;41.564;23.296;2023-12-20T06:03:18;97824.75;;;4.22;100.00
21869;BME280;11099;41.564;23.296;2023-12-20T06:05:46;97796.03;;;4.21;100.00
21869;BME280;11099;41.564;23.296;2023-12-20T06:08:15;97823.47;;;4.25;100.00
21869;BME280;11099;41.564;23.296;2023-12-20T06:10:45;97788.72;;;3.38;100.00
21869;BME280;11099;41.564;23.296;2023-12-20T06:13:18;97795.91;;;3.95;100.00
21869;BME280;11099;41.564;23.296;2023-12-20T06:15:44;97810.66;;;3.91;100.00
21869;BME280;11099;41.564;23.296;2023-12-20T06:18:11;97769.53;;;3.06;100.00
21869;BME280;11099;41.564;23.296;2023-12-20T06:20:46;97780.94;;;3.54;100.00
21869;BME280;11099;41.564;23.296;2023-12-20T06:23:14;97792.47;;;3.95;100.00
21869;BME280;11099;41.564;23.296;2023-12-20T06:25:41;97766.94;;;3.90;100.00
21869;BME280;11099;41.564;23.296;2023-12-20T06:28:12;97793.88;;;4.08;100.00
21869;BME280;11099;41.564;23.296;2023-12-20T06:31:02;97722.94;;;3.86;100.00
21869;BME280;11099;41.564;23.296;2023-12-20T06:33:31;97820.09;;;4.45;100.00
21869;BME280;11099;41.564;23.296;2023-12-20T06:36:11;97813.22;;;4.29;100.00
21869;BME280;11099;41.564;23.296;2023-12-20T06:38:42;97743.41;;;3.31;100.00
21869;BME280;11099;41.564;23.296;2023-12-20T06:41:25;97803.47;;;4.39;100.00
21869;BME280;11099;41.564;23.296;2023-12-20T06:43:59;97814.28;;;3.80;100.00
21869;BME280;11099;41.564;23.296;2023-12-20T06:46:57;97710.00;;;3.84;100.00
21869;BME280;11099;41.564;23.296;2023-12-20T06:49:48;97709.22;;;3.84;100.00
21869;BME280;11099;41.564;23.296;2023-12-20T06:52:22;97723.34;;;4.30;100.00
21869;BME280;11099;41.564;23.296;2023-12-20T06:54:50;97737.94;;;4.79;100.00
21869;BME280;11099;41.564;23.296;2023-12-20T06:57:48;97730.28;;;4.87;100.00
21869;BME280;11099;41.564;23.296;2023-12-20T07:03:54;97779.09;;;6.46;100.00
21869;BME280;11099;41.564;23.296;2023-12-20T07:09:01;97733.50;;;6.65;100.00
21869;BME280;11099;41.564;23.296;2023-12-20T07:11:51;97706.38;;;5.99;100.00
21869;BME280;11099;41.564;23.296;2023-12-20T07:14:39;97713.75;;;5.87;100.00
21869;BME280;11099;41.564;23.296;2023-12-20T07:17:13;97723.53;;;5.87;100.00
21869;BME280;11099;41.564;23.296;2023-12-20T07:19:42;97775.84;;;5.90;100.00
21869;BME280;11099;41.564;23.296;2023-12-20T07:22:22;97745.47;;;5.97;100.00
21869;BME280;11099;41.564;23.296;2023-12-20T07:24:49;97695.59;;;6.35;100.00
21869;BME280;11099;41.564;23.296;2023-12-20T07:27:23;97701.59;;;7.19;100.00
21869;BME280;11099;41.564;23.296;2023-12-20T07:29:51;97685.69;;;7.72;100.00
21869;BME280;11099;41.564;23.296;2023-12-20T07:32:20;97776.16;;;8.37;100.00
21869;BME280;11099;41.564;23.296;2023-12-20T07:34:54;97696.56;;;6.89;100.00
21869;BME280;11099;41.564;23.296;2023-12-20T07:37:42;97773.06;;;7.19;100.00
21869;BME280;11099;41.564;23.296;2023-12-20T07:40:13;97728.25;;;6.59;100.00
21869;BME280;11099;41.564;23.296;2023-12-20T07:42:47;97766.56;;;6.67;100.00
21869;BME280;11099;41.564;23.296;2023-12-20T07:45:34;97701.41;;;6.37;100.00
21869;BME280;11099;41.564;23.296;2023-12-20T07:48:04;97735.25;;;6.35;100.00
21869;BME280;11099;41.564;23.296;2023-12-20T07:50:30;97770.19;;;6.81;100.00
21869;BME280;11099;41.564;23.296;2023-12-20T07:53:09;97760.06;;;6.94;100.00
21869;BME280;11099;41.564;23.296;2023-12-20T07:56:19;97764.47;;;7.37;100.00
21869;BME280;11099;41.564;23.296;2023-12-20T07:59:32;97753.34;;;7.35;100.00
21869;BME280;11099;41.564;23.296;2023-12-20T08:02:02;97732.25;;;7.54;100.00
21869;BME280;11099;41.564;23.296;2023-12-20T08:04:33;97741.41;;;7.91;100.00
21869;BME280;11099;41.564;23.296;2023-12-20T08:07:01;97694.53;;;7.38;100.00
21869;BME280;11099;41.564;23.296;2023-12-20T08:09:29;97698.91;;;7.24;100.00
21869;BME280;11099;41.564;23.296;2023-12-20T08:11:56;97754.09;;;7.41;100.00
21869;BME280;11099;41.564;23.296;2023-12-20T08:14:32;97711.94;;;7.21;100.00
21869;BME280;11099;41.564;23.296;2023-12-20T08:17:19;97707.75;;;7.68;100.00
21869;BME280;11099;41.564;23.296;2023-12-20T08:20:00;97743.94;;;8.01;100.00
21869;BME280;11099;41.564;23.296;2023-12-20T08:22:33;97738.41;;;8.22;100.00
21869;BME280;11099;41.564;23.296;2023-12-20T08:25:03;97652.53;;;7.99;100.00
21869;BME280;11099;41.564;23.296;2023-12-20T08:30:48;97735.69;;;7.79;100.00
21869;BME280;11099;41.564;23.296;2023-12-20T08:33:43;97658.59;;;7.32;100.00
21869;BME280;11099;41.564;23.296;2023-12-20T08:41:23;97669.94;;;8.05;100.00
21869;BME280;11099;41.564;23.296;2023-12-20T08:44:04;97667.13;;;8.90;100.00
21869;BME280;11099;41.564;23.296;2023-12-20T08:46:31;97702.41;;;8.58;100.00
21869;BME280;11099;41.564;23.296;2023-12-20T08:49:04;97640.28;;;8.59;100.00
21869;BME280;11099;41.564;23.296;2023-12-20T08:51:40;97639.44;;;8.78;100.00
21869;BME280;11099;41.564;23.296;2023-12-20T08:54:08;97670.41;;;9.01;100.00
21869;BME280;11099;41.564;23.296;2023-12-20T08:56:51;97674.00;;;9.24;100.00
21869;BME280;11099;41.564;23.296;2023-12-20T08:59:23;97647.25;;;8.55;100.00
21869;BME280;11099;41.564;23.296;2023-12-20T09:01:54;97681.28;;;9.18;100.00
21869;BME280;11099;41.564;23.296;2023-12-20T09:04:23;97624.19;;;8.37;100.00
21869;BME280;11099;41.564;23.296;2023-12-20T09:06:51;97647.16;;;8.60;100.00
21869;BME280;11099;41.564;23.296;2023-12-20T09:09:23;97676.03;;;9.13;100.00
21869;BME280;11099;41.564;23.296;2023-12-20T09:11:53;97607.34;;;8.79;100.00
21869;BME280;11099;41.564;23.296;2023-12-20T09:14:24;97664.84;;;9.30;100.00
21869;BME280;11099;41.564;23.296;2023-12-20T09:16:54;97598.56;;;8.79;100.00
21869;BME280;11099;41.564;23.296;2023-12-20T09:19:29;97598.47;;;8.84;100.00
21869;BME280;11099;41.564;23.296;2023-12-20T09:21:59;97592.19;;;8.80;100.00
21869;BME280;11099;41.564;23.296;2023-12-20T09:24:45;97625.09;;;9.39;100.00
21869;BME280;11099;41.564;23.296;2023-12-20T09:27:15;97636.47;;;10.08;100.00
21869;BME280;11099;41.564;23.296;2023-12-20T09:50:25;97507.25;;;9.71;98.84
21869;BME280;11099;41.564;23.296;2023-12-20T09:52:53;97499.22;;;9.62;98.97
21869;BME280;11099;41.564;23.296;2023-12-20T09:55:26;97485.06;;;9.53;97.50
21869;BME280;11099;41.564;23.296;2023-12-20T10:06:22;97448.84;;;9.07;98.72
21869;BME280;11099;41.564;23.296;2023-12-20T10:08:54;97554.72;;;9.64;100.00
21869;BME280;11099;41.564;23.296;2023-12-20T10:11:21;97508.97;;;9.39;100.00
21869;BME280;11099;41.564;23.296;2023-12-20T10:14:01;97450.03;;;9.51;99.24
21869;BME280;11099;41.564;23.296;2023-12-20T10:17:01;97514.59;;;10.10;96.74
21869;BME280;11099;41.564;23.296;2023-12-20T14:38:57;97246.25;;;11.26;83.50
21869;BME280;11099;41.564;23.296;2023-12-20T14:41:29;97248.09;;;11.34;81.50
21869;BME280;11099;41.564;23.296;2023-12-20T14:43:58;97210.88;;;11.00;81.49
21869;BME280;11099;41.564;23.296;2023-12-20T14:46:29;97203.34;;;11.11;80.90
21869;BME280;11099;41.564;23.296;2023-12-20T14:48:57;97188.44;;;11.09;80.91
21869;BME280;11099;41.564;23.296;2023-12-20T15:13:10;97244.84;;;10.86;87.00
21869;BME280;11099;41.564;23.296;2023-12-20T15:24:04;97164.91;;;9.99;89.37
21869;BME280;11099;41.564;23.296;2023-12-20T15:41:44;97203.66;;;10.40;88.16
21869;BME280;11099;41.564;23.296;2023-12-20T15:44:23;97239.22;;;10.96;86.46
21869;BME280;11099;41.564;23.296;2023-12-20T15:46:56;97177.34;;;10.38;87.06
21869;BME280;11099;41.564;23.296;2023-12-20T15:49:30;97183.88;;;10.06;89.02
21869;BME280;11099;41.564;23.296;2023-12-20T15:52:06;97189.25;;;10.23;88.25
21869;BME280;11099;41.564;23.296;2023-12-20T15:54:42;97245.63;;;10.69;87.97
21869;BME280;11099;41.564;23.296;2023-12-20T15:57:19;97247.69;;;10.89;87.46
21869;BME280;11099;41.564;23.296;2023-12-20T16:23:24;97168.38;;;9.51;91.41
21869;BME280;11099;41.564;23.296;2023-12-20T17:42:27;97240.41;;;8.96;100.00
21869;BME280;11099;41.564;23.296;2023-12-20T17:45:13;97152.28;;;8.13;100.00
21869;BME280;11099;41.564;23.296;2023-12-20T23:28:38;97167.03;;;7.23;100.00
